Time;durP1;ratioP1;P1;durP2;ratioP2;P2;SDS_P1;SDS_P2;PMS_P1;PMS_P2;Temp;Humidity;BMP_temperature;BMP_pressure;BME280_temperature;BME280_humidity;BME280_pressure;Samples;Min_cycle;Max_cycle;Signal;HPM_P1;HPM_P2
2022/06/16 00:07:48;;;;;;;6.32;2.15;;;21.70;59.70;;;;;;4903265;29;20450;-86
2022/06/16 00:10:14;;;;;;;4.63;2.00;;;21.60;59.80;;;;;;4809681;29;20042;-85
2022/06/16 00:18:48;;;;;;;4.43;1.80;;;21.50;59.80;;;;;;4826955;29;20086;-85
2022/06/16 00:21:34;;;;;;;3.70;2.13;;;21.50;59.80;;;;;;4840952;29;20037;-86
2022/06/16 00:24:18;;;;;;;4.30;1.90;;;21.40;60.10;;;;;;4852812;29;20037;-86
2022/06/16 00:27:02;;;;;;;4.80;2.10;;;21.40;60.10;;;;;;4864092;29;20098;-85
2022/06/16 00:36:34;;;;;;;7.75;2.85;;;21.30;60.20;;;;;;4989728;28;20451;-86
2022/06/16 00:42:30;;;;;;;4.07;1.92;;;21.20;60.60;;;;;;4992365;28;20041;-85
2022/06/16 00:45:56;;;;;;;5.18;2.38;;;21.10;60.70;;;;;;4976433;28;20018;-86
2022/06/16 00:52:42;;;;;;;6.85;2.53;;;21.10;61.20;;;;;;4972674;28;20035;-86
2022/06/16 00:55:44;;;;;;;3.50;1.92;;;21.00;61.10;;;;;;4911843;29;20039;-85
2022/06/16 01:01:56;;;;;;;5.28;2.25;;;20.90;61.40;;;;;;4969925;28;20575;-86
2022/06/16 01:10:37;;;;;;;4.03;2.20;;;20.80;61.50;;;;;;4973535;28;20416;-86
2022/06/16 01:16:42;;;;;;;5.00;2.25;;;20.60;61.90;;;;;;4981913;28;20034;-86
2022/06/16 01:23:15;;;;;;;4.07;2.28;;;20.60;61.80;;;;;;4911436;29;20510;-86
2022/06/16 01:29:57;;;;;;;5.60;2.10;;;20.40;62.00;;;;;;4940753;29;20026;-85
2022/06/16 01:33:00;;;;;;;5.35;2.33;;;20.40;62.10;;;;;;4996737;28;20176;-86
2022/06/16 01:43:11;;;;;;;9.68;2.50;;;20.20;62.70;;;;;;4841628;29;20044;-85
2022/06/16 01:49:30;;;;;;;4.75;2.47;;;20.10;63.00;;;;;;4869321;29;20040;-85
2022/06/16 01:52:22;;;;;;;4.97;2.30;;;20.00;63.20;;;;;;4880545;29;20495;-85
2022/06/16 01:55:37;;;;;;;6.47;2.53;;;20.00;63.70;;;;;;4865495;29;20238;-85
2022/06/16 01:58:48;;;;;;;5.53;2.25;;;19.90;63.40;;;;;;4880723;29;20033;-86
2022/06/16 02:05:34;;;;;;;6.60;2.45;;;19.80;63.70;;;;;;4952313;28;20048;-86
2022/06/16 02:08:49;;;;;;;;;;;;;;;;;;;;;
2022/06/16 02:11:36;;;;;;;4.32;2.47;;;19.70;64.30;;;;;;4946738;28;20046;-85
2022/06/16 02:20:09;;;;;;;5.47;2.83;;;19.60;64.70;;;;;;4942012;29;20523;-86
2022/06/16 02:22:35;;;;;;;9.50;2.97;;;19.50;64.80;;;;;;4904631;29;20032;-86
2022/06/16 02:25:08;;;;;;;4.65;2.42;;;19.50;64.90;;;;;;4931257;28;20089;-87
2022/06/16 02:27:35;;;;;;;5.75;2.30;;;19.50;65.30;;;;;;4974341;28;20061;-85
2022/06/16 02:30:08;;;;;;;5.82;2.60;;;19.40;65.20;;;;;;4975777;28;20050;-86
2022/06/16 02:33:18;;;;;;;5.32;2.70;;;19.40;65.60;;;;;;4963586;28;20039;-86
2022/06/16 02:36:16;;;;;;;7.25;2.53;;;19.40;65.60;;;;;;4995190;28;20037;-86
2022/06/16 02:39:22;;;;;;;4.93;2.65;;;19.30;65.60;;;;;;4926364;29;20060;-86
2022/06/16 02:45:54;;;;;;;7.47;3.80;;;19.20;66.20;;;;;;4938926;29;20065;-86
2022/06/16 02:48:41;;;;;;;7.90;2.90;;;19.10;66.50;;;;;;4905991;29;20039;-86
2022/06/16 02:51:09;;;;;;;8.23;3.40;;;19.10;66.50;;;;;;4958996;28;20100;-86
2022/06/16 02:57:19;;;;;;;5.78;2.50;;;19.00;66.90;;;;;;5035544;28;20029;-85
2022/06/16 03:00:25;;;;;;;5.93;2.70;;;19.00;66.80;;;;;;5022052;28;20017;-86
2022/06/16 03:02:51;;;;;;;5.75;2.85;;;18.90;67.00;;;;;;5010219;28;20040;-86
2022/06/16 03:05:30;;;;;;;5.60;2.88;;;18.80;66.90;;;;;;5037551;28;20095;-86
2022/06/16 03:08:14;;;;;;;5.80;2.38;;;18.80;67.00;;;;;;5008670;28;20029;-86
2022/06/16 03:11:02;;;;;;;6.20;2.75;;;18.80;67.30;;;;;;5012137;28;20102;-86
2022/06/16 03:13:38;;;;;;;6.78;2.90;;;18.70;67.50;;;;;;5023229;28;20021;-85
2022/06/16 03:16:10;;;;;;;6.55;2.70;;;18.70;67.60;;;;;;5011438;28;20308;-85
2022/06/16 03:19:10;;;;;;;7.10;3.05;;;18.70;67.80;;;;;;5017216;28;20017;-86
2022/06/16 03:21:44;;;;;;;5.90;3.08;;;18.60;67.70;;;;;;5017607;28;20021;-85
2022/06/16 03:24:10;;;;;;;7.75;3.50;;;18.60;67.80;;;;;;5001222;28;20086;-86
2022/06/16 03:30:05;;;;;;;7.05;2.80;;;18.50;68.20;;;;;;5033825;28;20064;-86
2022/06/16 03:32:51;;;;;;;8.35;2.90;;;18.50;68.50;;;;;;5017144;28;20097;-86
2022/06/16 03:36:00;;;;;;;4.07;2.28;;;18.40;68.50;;;;;;5030358;23;20136;-96
2022/06/16 03:39:23;;;;;;;;;;;;;;;;;;;;;
2022/06/16 03:45:30;;;;;;;;;;;;;;;;;;;;;
2022/06/16 03:51:44;;;;;;;;;;;;;;;;;;;;;
2022/06/16 03:58:05;;;;;;;;;;;;;;;;;;;;;
2022/06/16 04:01:12;;;;;;;6.78;2.95;;;18.10;70.00;;;;;;5069706;28;20056;-95
2022/06/16 04:06:20;;;;;;;4.97;2.38;;;18.00;70.00;;;;;;5069342;28;20036;-85
2022/06/16 04:08:46;;;;;;;6.68;2.35;;;18.00;70.10;;;;;;5040546;28;20041;-85
2022/06/16 04:11:54;;;;;;;7.05;2.72;;;18.00;70.30;;;;;;5045569;28;20036;-85
2022/06/16 04:14:09;;;;;;;5.53;2.45;;;17.90;70.60;;;;;;5055918;28;20033;-85
2022/06/16 04:16:38;;;;;;;7.05;2.72;;;17.90;70.80;;;;;;5065030;28;20023;-86
2022/06/16 04:19:05;;;;;;;5.65;2.55;;;17.90;71.10;;;;;;5085544;28;20096;-85
2022/06/16 04:21:31;;;;;;;4.88;2.60;;;17.90;71.30;;;;;;5045244;28;20033;-85
2022/06/16 04:23:57;;;;;;;5.40;3.05;;;17.90;71.60;;;;;;5053066;28;20029;-85
2022/06/16 04:26:24;;;;;;;6.22;2.63;;;17.90;71.70;;;;;;5059938;28;20120;-85
2022/06/16 04:28:50;;;;;;;6.93;3.15;;;17.80;71.80;;;;;;5065122;28;20038;-86
2022/06/16 04:31:16;;;;;;;7.55;3.05;;;17.80;72.10;;;;;;5074705;28;20056;-86
2022/06/16 04:33:42;;;;;;;9.05;2.70;;;17.80;72.20;;;;;;5068986;28;20040;-86
2022/06/16 04:36:08;;;;;;;11.75;3.60;;;17.80;72.10;;;;;;5028075;28;20025;-85
2022/06/16 04:38:35;;;;;;;5.30;2.55;;;17.70;72.30;;;;;;5078872;28;20055;-85
2022/06/16 04:41:01;;;;;;;5.53;2.70;;;17.70;72.60;;;;;;5062717;28;20420;-86
2022/06/16 04:43:28;;;;;;;6.93;2.75;;;17.70;72.80;;;;;;5064958;28;20104;-86
2022/06/16 04:45:55;;;;;;;6.78;2.95;;;17.70;73.10;;;;;;5084881;28;20458;-85
2022/06/16 04:48:21;;;;;;;6.30;2.85;;;17.60;73.40;;;;;;5067378;28;20036;-86
2022/06/16 04:50:49;;;;;;;6.10;3.00;;;17.70;73.80;;;;;;5055684;28;20067;-87
2022/06/16 04:53:14;;;;;;;6.90;3.00;;;17.60;73.90;;;;;;5063746;28;20024;-89
2022/06/16 04:55:43;;;;;;;6.43;2.97;;;17.60;74.20;;;;;;5061588;28;20365;-89
2022/06/16 04:58:08;;;;;;;5.40;2.63;;;17.60;74.60;;;;;;5026955;28;20032;-89
2022/06/16 05:00:35;;;;;;;5.65;2.92;;;17.60;75.00;;;;;;5064302;28;20358;-89
2022/06/16 05:03:01;;;;;;;10.48;3.22;;;17.60;75.30;;;;;;5044400;28;20127;-88
2022/06/16 05:05:27;;;;;;;6.25;2.70;;;17.60;75.60;;;;;;5053227;28;20112;-88
2022/06/16 05:07:53;;;;;;;8.32;2.78;;;17.60;75.90;;;;;;5030748;28;20064;-88
2022/06/16 05:10:19;;;;;;;5.53;2.67;;;17.60;76.10;;;;;;5043437;28;20025;-88
2022/06/16 05:12:45;;;;;;;5.80;2.83;;;17.60;76.40;;;;;;5050536;28;20032;-87
2022/06/16 05:15:10;;;;;;;5.75;2.65;;;17.60;76.60;;;;;;5042018;28;20039;-87
2022/06/16 05:17:37;;;;;;;5.13;2.70;;;17.70;76.90;;;;;;5037459;28;20032;-86
2022/06/16 05:20:03;;;;;;;8.10;2.70;;;17.60;77.20;;;;;;5038617;28;20029;-86
2022/06/16 05:22:29;;;;;;;7.70;2.60;;;17.60;77.30;;;;;;5049383;28;20048;-88
2022/06/16 05:24:55;;;;;;;5.35;2.40;;;17.70;77.70;;;;;;5041180;28;20056;-88
2022/06/16 05:27:21;;;;;;;4.80;2.40;;;17.70;78.00;;;;;;5051172;28;20043;-88
2022/06/16 05:29:47;;;;;;;6.85;2.33;;;17.70;78.90;;;;;;5054568;28;20122;-88
2022/06/16 05:32:12;;;;;;;7.03;3.08;;;17.70;78.50;;;;;;5017439;28;20025;-88
2022/06/16 05:34:38;;;;;;;5.25;2.47;;;17.70;78.70;;;;;;5037692;28;20079;-87
2022/06/16 05:37:05;;;;;;;6.68;2.22;;;17.70;79.10;;;;;;5041482;28;20033;-87
2022/06/16 05:39:30;;;;;;;5.18;2.35;;;17.70;79.40;;;;;;5042970;28;20119;-89
2022/06/16 05:41:56;;;;;;;5.95;2.20;;;17.80;79.70;;;;;;5054474;28;20158;-89
2022/06/16 05:44:22;;;;;;;3.67;1.80;;;17.70;79.70;;;;;;5054037;28;20490;-88
2022/06/16 05:46:48;;;;;;;4.97;2.00;;;17.80;80.00;;;;;;5042287;28;20028;-87
2022/06/16 05:49:15;;;;;;;4.15;1.70;;;17.80;80.20;;;;;;5038844;28;20479;-88
2022/06/16 05:51:44;;;;;;;4.90;1.63;;;17.80;80.60;;;;;;5071644;28;20171;-88
2022/06/16 05:54:10;;;;;;;4.32;1.95;;;17.80;81.10;;;;;;5068745;28;20024;-87
2022/06/16 05:56:36;;;;;;;5.28;1.90;;;17.90;81.40;;;;;;5092644;28;20032;-87
2022/06/16 05:59:02;;;;;;;3.47;1.73;;;17.90;81.70;;;;;;5038543;28;20385;-88
2022/06/16 06:01:27;;;;;;;4.18;1.83;;;17.90;81.80;;;;;;5038475;28;20488;-88
2022/06/16 06:03:53;;;;;;;5.38;1.63;;;17.90;82.00;;;;;;5054692;28;20099;-88
2022/06/16 06:06:19;;;;;;;2.92;1.30;;;17.90;81.80;;;;;;5048225;28;20035;-88
2022/06/16 06:17:14;;;;;;;2.08;0.93;;;18.00;82.30;;;;;;5065652;28;20083;-88
2022/06/16 06:19:40;;;;;;;2.65;1.20;;;18.10;82.10;;;;;;5060430;28;20473;-87
2022/06/16 06:22:24;;;;;;;3.70;1.40;;;18.10;82.40;;;;;;5045360;28;20031;-88
2022/06/16 06:24:57;;;;;;;4.38;1.50;;;18.10;82.50;;;;;;5064961;28;20040;-87
2022/06/16 06:27:39;;;;;;;2.70;1.45;;;18.20;82.60;;;;;;5063719;28;20046;-87
2022/06/16 06:30:19;;;;;;;6.60;1.65;;;18.20;82.60;;;;;;5059053;28;20032;-87
2022/06/16 06:32:45;;;;;;;4.45;1.40;;;18.20;82.50;;;;;;5077119;28;20017;-88
2022/06/16 06:35:11;;;;;;;3.60;1.10;;;18.30;82.30;;;;;;5058414;28;20592;-87
2022/06/16 06:37:37;;;;;;;6.45;1.48;;;18.30;82.40;;;;;;5076711;28;20013;-88
2022/06/16 06:40:04;;;;;;;2.67;1.10;;;18.30;82.70;;;;;;5042886;28;20029;-87
2022/06/16 06:42:30;;;;;;;3.30;1.02;;;18.40;82.90;;;;;;5058718;28;20040;-88
2022/06/16 06:44:58;;;;;;;2.13;0.95;;;18.40;82.90;;;;;;5042469;28;20028;-87
2022/06/16 06:47:29;;;;;;;4.22;1.20;;;18.40;83.30;;;;;;5058816;28;20036;-86
2022/06/16 06:49:56;;;;;;;2.22;0.98;;;18.50;83.50;;;;;;5077121;28;20040;-87
2022/06/16 06:52:22;;;;;;;3.63;1.20;;;18.50;83.70;;;;;;5057703;28;20082;-87
2022/06/16 06:54:48;;;;;;;3.03;1.20;;;18.60;83.70;;;;;;5057432;28;20017;-87
2022/06/16 06:57:20;;;;;;;2.00;0.90;;;18.60;83.40;;;;;;5058745;28;20020;-87
2022/06/16 06:59:46;;;;;;;3.33;1.17;;;18.70;83.00;;;;;;5058180;28;20103;-87
2022/06/16 07:02:13;;;;;;;3.25;1.10;;;18.70;82.70;;;;;;5024510;28;20048;-87
2022/06/16 07:04:40;;;;;;;3.90;1.35;;;18.80;81.80;;;;;;5075354;28;20047;-88
2022/06/16 07:07:06;;;;;;;3.47;1.00;;;18.80;81.00;;;;;;5057196;28;20043;-87
2022/06/16 07:09:32;;;;;;;2.58;0.98;;;18.90;80.80;;;;;;5039964;28;20036;-87
2022/06/16 07:11:58;;;;;;;3.42;1.08;;;18.90;80.90;;;;;;5037035;28;20043;-87
2022/06/16 07:14:23;;;;;;;4.03;1.10;;;19.00;81.40;;;;;;5038123;28;20024;-87
2022/06/16 07:16:50;;;;;;;3.83;1.10;;;19.10;81.20;;;;;;5037712;28;20025;-86
2022/06/16 07:19:17;;;;;;;3.47;1.00;;;19.10;80.40;;;;;;5021339;28;20025;-88
2022/06/16 07:21:43;;;;;;;2.22;1.00;;;19.20;80.50;;;;;;5055638;28;20025;-87
2022/06/16 07:24:08;;;;;;;4.10;1.30;;;19.30;80.00;;;;;;5055801;28;20021;-88
2022/06/16 07:26:34;;;;;;;1.92;0.90;;;19.30;80.00;;;;;;5004630;28;20478;-87
2022/06/16 07:29:00;;;;;;;2.30;0.90;;;19.40;80.20;;;;;;5020448;28;20029;-87
2022/06/16 07:31:28;;;;;;;2.50;0.98;;;19.50;81.00;;;;;;5054052;28;20466;-88
2022/06/16 07:33:54;;;;;;;5.00;1.15;;;19.50;80.00;;;;;;5037495;28;20111;-87
2022/06/16 07:36:26;;;;;;;4.25;1.10;;;19.60;79.10;;;;;;5037281;28;20496;-88
2022/06/16 07:38:52;;;;;;;3.17;1.38;;;19.70;78.60;;;;;;5038675;28;20041;-88
2022/06/16 07:41:36;;;;;;;3.35;1.02;;;19.70;78.60;;;;;;5040762;28;20024;-87
2022/06/16 07:44:08;;;;;;;2.78;1.00;;;19.80;77.60;;;;;;5048016;28;20027;-87
2022/06/16 07:46:35;;;;;;;4.47;1.48;;;19.90;77.20;;;;;;5076223;28;20020;-87
2022/06/16 07:49:02;;;;;;;4.57;1.40;;;20.00;76.00;;;;;;5059385;28;20024;-86
2022/06/16 07:51:28;;;;;;;4.03;1.20;;;20.10;75.60;;;;;;5075861;28;20023;-87
2022/06/16 07:53:54;;;;;;;2.83;1.10;;;20.10;74.70;;;;;;5059201;28;20027;-86
2022/06/16 07:56:20;;;;;;;2.92;1.20;;;20.20;74.40;;;;;;5059316;28;20123;-87
2022/06/16 07:58:46;;;;;;;3.03;1.20;;;20.30;74.70;;;;;;5075940;28;20024;-87
2022/06/16 08:01:12;;;;;;;3.20;1.10;;;20.40;74.80;;;;;;5059239;28;20028;-87
2022/06/16 08:03:39;;;;;;;2.78;1.00;;;20.40;74.90;;;;;;5059114;28;20378;-87
2022/06/16 08:06:08;;;;;;;5.00;1.25;;;20.50;74.80;;;;;;5059274;28;20036;-87
2022/06/16 08:08:34;;;;;;;3.08;0.95;;;20.60;74.30;;;;;;5075784;28;20028;-87
2022/06/16 08:11:00;;;;;;;3.90;1.15;;;20.60;73.20;;;;;;5042449;28;20044;-87
2022/06/16 08:13:28;;;;;;;3.38;1.25;;;20.70;72.60;;;;;;5059215;28;20028;-87
2022/06/16 08:15:54;;;;;;;3.60;1.27;;;20.80;72.20;;;;;;5043230;28;20024;-87
2022/06/16 08:18:23;;;;;;;4.93;1.83;;;20.90;72.00;;;;;;5075980;28;20070;-87
2022/06/16 08:20:49;;;;;;;3.83;1.27;;;21.00;72.10;;;;;;5074901;28;20062;-87
2022/06/16 08:23:18;;;;;;;2.92;1.00;;;21.00;71.40;;;;;;5075973;28;20065;-87
2022/06/16 08:25:46;;;;;;;3.38;1.30;;;21.10;70.60;;;;;;5058574;28;20034;-87
2022/06/16 08:28:17;;;;;;;3.13;1.25;;;21.20;70.10;;;;;;5075800;28;20078;-87
2022/06/16 08:30:46;;;;;;;5.28;1.30;;;21.20;71.00;;;;;;5075516;28;20035;-87
2022/06/16 08:33:14;;;;;;;3.25;1.30;;;21.30;71.10;;;;;;5075676;28;20103;-87
2022/06/16 08:35:45;;;;;;;3.80;1.30;;;21.40;71.10;;;;;;5075689;28;20028;-87
2022/06/16 08:38:12;;;;;;;2.65;1.17;;;21.40;70.40;;;;;;5042715;28;20059;-87
2022/06/16 08:40:43;;;;;;;2.72;1.20;;;21.50;69.60;;;;;;5093678;28;20020;-87
2022/06/16 08:43:20;;;;;;;4.53;1.50;;;21.60;69.50;;;;;;5060008;28;20031;-84
2022/06/16 08:45:53;;;;;;;4.15;1.40;;;21.70;68.80;;;;;;5053675;28;20024;-83
2022/06/16 08:48:36;;;;;;;3.45;1.10;;;21.70;68.90;;;;;;5046622;28;20025;-83
2022/06/16 08:51:24;;;;;;;4.93;1.95;;;21.80;68.20;;;;;;5054331;28;20036;-83
2022/06/16 08:54:01;;;;;;;3.45;1.27;;;21.80;67.30;;;;;;5073093;28;20016;-84
2022/06/16 08:57:10;;;;;;;3.00;1.30;;;21.90;67.10;;;;;;5055711;28;20111;-84
2022/06/16 09:00:06;;;;;;;5.65;1.50;;;22.00;67.90;;;;;;4973286;28;20038;-84
2022/06/16 09:03:06;;;;;;;5.45;1.20;;;22.10;67.70;;;;;;5056035;28;20533;-84
2022/06/16 09:06:07;;;;;;;5.07;1.33;;;22.20;67.10;;;;;;5054952;28;20073;-84
2022/06/16 09:09:09;;;;;;;3.42;1.20;;;22.20;66.80;;;;;;4955918;28;20054;-84
2022/06/16 09:11:48;;;;;;;2.90;1.10;;;22.30;67.00;;;;;;5054528;28;20389;-84
2022/06/16 09:17:29;;;;;;;2.72;1.40;;;22.40;67.00;;;;;;5073508;28;20531;-84
2022/06/16 09:20:14;;;;;;;2.53;1.40;;;22.50;67.00;;;;;;5054711;28;20021;-84
2022/06/16 09:23:10;;;;;;;2.35;1.35;;;22.60;67.50;;;;;;5054760;28;20027;-84
2022/06/16 09:25:51;;;;;;;6.03;1.60;;;22.70;67.60;;;;;;5073081;28;20020;-83
2022/06/16 09:28:31;;;;;;;5.57;1.20;;;22.80;67.00;;;;;;5046765;28;20359;-84
2022/06/16 09:31:01;;;;;;;4.22;1.67;;;22.80;66.90;;;;;;5082363;28;20035;-84
2022/06/16 09:33:35;;;;;;;4.30;1.50;;;22.90;66.20;;;;;;5060844;28;20024;-84
2022/06/16 09:36:27;;;;;;;3.15;1.40;;;23.00;66.00;;;;;;5075972;28;20024;-84
2022/06/16 09:39:22;;;;;;;6.30;1.55;;;23.00;66.10;;;;;;5075754;28;20350;-83
2022/06/16 09:45:17;;;;;;;3.72;1.42;;;23.20;66.70;;;;;;5073803;28;20476;-83
2022/06/16 09:47:53;;;;;;;3.42;1.48;;;23.30;67.40;;;;;;5061124;28;20016;-84
2022/06/16 09:50:19;;;;;;;7.90;1.90;;;23.40;67.60;;;;;;5057980;28;20036;-83
2022/06/16 09:52:53;;;;;;;4.80;1.40;;;23.40;67.40;;;;;;5057501;28;20468;-83
2022/06/16 09:55:29;;;;;;;2.85;1.30;;;23.50;66.30;;;;;;5057862;28;20017;-83
2022/06/16 09:58:16;;;;;;;3.22;1.60;;;23.60;65.80;;;;;;5058026;28;20021;-83
2022/06/16 10:00:43;;;;;;;4.43;1.45;;;23.60;65.50;;;;;;5075911;28;20473;-83
2022/06/16 10:03:27;;;;;;;3.30;1.35;;;23.70;65.20;;;;;;5057543;28;20477;-84
2022/06/16 10:06:25;;;;;;;5.82;1.92;;;23.70;65.30;;;;;;5057867;28;20078;-84
2022/06/16 10:09:08;;;;;;;4.32;1.63;;;23.80;65.40;;;;;;5057941;28;20017;-83
2022/06/16 10:11:40;;;;;;;2.42;1.40;;;23.90;65.70;;;;;;5075779;28;20119;-83
2022/06/16 10:14:32;;;;;;;5.43;1.45;;;23.90;66.00;;;;;;5057736;28;20025;-84
2022/06/16 10:17:02;;;;;;;5.30;1.45;;;24.00;66.50;;;;;;5057795;28;20016;-83
2022/06/16 10:19:38;;;;;;;3.77;1.40;;;24.10;66.60;;;;;;5057419;28;20028;-83
2022/06/16 10:22:05;;;;;;;3.42;1.50;;;24.20;66.30;;;;;;5076927;28;20020;-83
2022/06/16 10:24:53;;;;;;;5.50;1.60;;;24.20;65.90;;;;;;5062904;28;20367;-82
2022/06/16 10:27:20;;;;;;;3.03;1.48;;;24.30;65.10;;;;;;5065905;28;20020;-83
2022/06/16 10:29:56;;;;;;;2.60;1.60;;;24.30;64.80;;;;;;5077459;28;20109;-82
2022/06/16 10:32:44;;;;;;;3.35;1.58;;;24.40;64.80;;;;;;5043190;28;20025;-82
2022/06/16 10:35:18;;;;;;;5.50;1.95;;;24.40;65.10;;;;;;5022093;28;20025;-83
2022/06/16 10:37:47;;;;;;;4.55;1.65;;;24.50;64.90;;;;;;5057225;28;20044;-83
2022/06/16 10:40:26;;;;;;;5.05;1.88;;;24.50;64.80;;;;;;5067239;28;20035;-83
2022/06/16 10:43:13;;;;;;;5.40;1.75;;;24.60;64.70;;;;;;5098795;28;20028;-84
2022/06/16 10:45:40;;;;;;;5.60;1.65;;;24.70;64.40;;;;;;5069102;28;20025;-84
2022/06/16 10:48:19;;;;;;;3.42;1.35;;;24.70;63.80;;;;;;5063182;28;20035;-83
2022/06/16 10:51:07;;;;;;;2.67;1.48;;;24.80;62.70;;;;;;5084773;28;20035;-83
2022/06/16 10:53:41;;;;;;;4.10;1.80;;;24.80;62.30;;;;;;5079551;28;20477;-83
2022/06/16 10:56:13;;;;;;;4.38;1.75;;;24.80;61.90;;;;;;5071647;28;20031;-84
2022/06/16 10:59:08;;;;;;;3.70;1.60;;;24.80;61.00;;;;;;5077476;28;20062;-84
2022/06/16 11:01:36;;;;;;;7.22;1.90;;;24.90;60.70;;;;;;5082890;28;20063;-84
2022/06/16 11:04:04;;;;;;;4.22;1.90;;;24.90;60.70;;;;;;5065730;28;20047;-84
2022/06/16 11:06:29;;;;;;;2.78;1.25;;;24.90;60.90;;;;;;5056161;28;20117;-84
2022/06/16 11:09:04;;;;;;;6.15;1.48;;;25.00;61.60;;;;;;5053769;28;20044;-84
2022/06/16 11:11:46;;;;;;;2.58;1.20;;;25.00;61.40;;;;;;5066510;28;20519;-85
2022/06/16 11:14:21;;;;;;;4.78;1.80;;;25.10;61.80;;;;;;5052778;28;20028;-84
2022/06/16 11:20:16;;;;;;;2.38;1.38;;;25.20;61.90;;;;;;5065531;28;20505;-84
2022/06/16 11:22:57;;;;;;;2.88;1.55;;;25.30;62.60;;;;;;5066610;28;20056;-84
2022/06/16 11:25:36;;;;;;;3.85;1.33;;;25.30;62.20;;;;;;5037769;28;20025;-84
2022/06/16 11:28:13;;;;;;;3.67;1.70;;;25.40;62.10;;;;;;5037515;28;20079;-84
2022/06/16 11:30:48;;;;;;;3.70;1.88;;;25.40;62.40;;;;;;5057371;28;20104;-84
2022/06/16 11:36:42;;;;;;;3.97;1.80;;;25.60;63.10;;;;;;5063262;28;20036;-84
2022/06/16 11:39:14;;;;;;;4.32;2.40;;;25.60;62.50;;;;;;5057980;28;20021;-84
2022/06/16 11:41:44;;;;;;;6.10;2.03;;;25.70;62.20;;;;;;5075970;28;20029;-84
2022/06/16 11:44:56;;;;;;;3.50;1.55;;;25.70;61.20;;;;;;5058077;28;20111;-84
2022/06/16 11:47:36;;;;;;;2.72;1.40;;;25.80;61.00;;;;;;4963692;28;20035;-84
2022/06/16 11:50:43;;;;;;;3.20;1.50;;;25.80;60.50;;;;;;5068319;28;20033;-84
2022/06/16 11:53:29;;;;;;;3.85;1.60;;;25.90;60.80;;;;;;5024360;28;20024;-84
2022/06/16 11:56:04;;;;;;;5.18;1.70;;;25.90;61.50;;;;;;5065715;28;20028;-84
2022/06/16 11:58:43;;;;;;;4.28;1.42;;;26.00;61.00;;;;;;5088944;28;20024;-84
2022/06/16 12:01:19;;;;;;;4.63;1.70;;;26.10;59.80;;;;;;5050743;28;20016;-84
2022/06/16 12:04:05;;;;;;;6.05;1.77;;;26.10;59.70;;;;;;5076098;28;20090;-84
2022/06/16 12:06:41;;;;;;;3.33;1.73;;;26.20;59.90;;;;;;5056018;28;20488;-84
2022/06/16 12:09:23;;;;;;;4.25;1.63;;;26.20;59.20;;;;;;5045761;28;20389;-84
2022/06/16 12:12:08;;;;;;;4.18;2.10;;;26.30;59.00;;;;;;5074451;28;20154;-84
2022/06/16 12:14:43;;;;;;;6.30;1.80;;;26.30;59.50;;;;;;5077594;28;20457;-84
2022/06/16 12:17:13;;;;;;;5.88;1.80;;;26.40;60.30;;;;;;5065528;28;20017;-84
2022/06/16 12:19:44;;;;;;;3.60;1.70;;;26.40;60.00;;;;;;5060148;28;20103;-84
2022/06/16 12:22:28;;;;;;;3.05;1.67;;;26.40;58.90;;;;;;5066297;28;20012;-84
2022/06/16 12:25:10;;;;;;;3.33;1.80;;;26.40;58.90;;;;;;5063914;28;20021;-83
2022/06/16 12:27:57;;;;;;;4.35;1.60;;;26.40;59.00;;;;;;5051638;28;20016;-84
2022/06/16 12:30:34;;;;;;;4.30;2.08;;;26.50;58.90;;;;;;5047726;28;20025;-84
2022/06/16 12:33:19;;;;;;;6.22;2.08;;;26.60;58.50;;;;;;5081387;28;20031;-84
2022/06/16 12:36:08;;;;;;;5.38;1.80;;;26.60;57.60;;;;;;5053414;28;20016;-84
2022/06/16 12:38:37;;;;;;;3.15;1.50;;;26.60;57.60;;;;;;5074658;28;20048;-84
2022/06/16 12:41:28;;;;;;;4.00;1.67;;;26.60;58.00;;;;;;5059061;28;20025;-84
2022/06/16 12:44:15;;;;;;;4.68;1.60;;;26.70;58.80;;;;;;5047237;28;20036;-84
2022/06/16 12:46:44;;;;;;;4.32;1.80;;;26.70;59.30;;;;;;5059728;28;20481;-84
2022/06/16 12:49:27;;;;;;;3.72;1.55;;;26.70;58.60;;;;;;5057108;28;20025;-84
2022/06/16 12:51:59;;;;;;;3.70;1.80;;;26.70;58.50;;;;;;5058337;28;20092;-84
2022/06/16 12:54:31;;;;;;;3.40;1.80;;;26.70;58.60;;;;;;5059622;28;20043;-84
2022/06/16 12:57:09;;;;;;;4.70;1.70;;;26.70;58.20;;;;;;5058492;28;20016;-84
2022/06/16 12:59:44;;;;;;;3.75;1.80;;;26.80;58.10;;;;;;5049312;28;20493;-84
2022/06/16 13:02:16;;;;;;;3.22;1.58;;;26.80;58.50;;;;;;5057532;28;20056;-84
2022/06/16 13:04:43;;;;;;;4.78;1.98;;;26.80;58.20;;;;;;5046276;28;20451;-84
2022/06/16 13:07:14;;;;;;;4.10;2.00;;;26.80;58.30;;;;;;5044561;28;20021;-84
2022/06/16 13:09:41;;;;;;;3.28;1.60;;;26.80;58.30;;;;;;5063641;28;20033;-84
2022/06/16 13:12:29;;;;;;;4.75;1.77;;;26.80;57.60;;;;;;5065267;28;20486;-84
2022/06/16 13:15:00;;;;;;;4.80;1.80;;;26.80;55.10;;;;;;5083664;28;20104;-85
2022/06/16 13:17:29;;;;;;;4.78;1.67;;;26.80;54.20;;;;;;5080314;28;20020;-84
2022/06/16 13:20:17;;;;;;;2.20;1.40;;;26.80;55.00;;;;;;5078035;28;20023;-84
2022/06/16 13:22:48;;;;;;;2.85;1.70;;;26.80;56.40;;;;;;5069715;28;20032;-84
2022/06/16 13:25:37;;;;;;;6.90;2.10;;;26.80;57.60;;;;;;5085545;28;20020;-84
2022/06/16 13:28:06;;;;;;;3.90;1.77;;;26.80;58.00;;;;;;5068969;28;20023;-84
2022/06/16 13:30:35;;;;;;;3.47;1.80;;;26.80;57.60;;;;;;5043241;28;20033;-84
2022/06/16 13:33:07;;;;;;;3.92;1.80;;;26.90;57.00;;;;;;5057982;28;20020;-84
2022/06/16 13:35:46;;;;;;;4.60;1.80;;;26.90;57.40;;;;;;5058354;28;20100;-84
2022/06/16 13:38:12;;;;;;;4.88;1.55;;;27.00;57.20;;;;;;5051250;28;20023;-84
2022/06/16 13:40:40;;;;;;;2.50;1.50;;;27.00;56.60;;;;;;5080913;28;20048;-84
2022/06/16 13:43:20;;;;;;;4.18;1.90;;;27.10;56.40;;;;;;5063155;28;20052;-84
2022/06/16 13:45:59;;;;;;;4.10;1.40;;;27.20;56.90;;;;;;5055822;28;20025;-84
2022/06/16 13:48:37;;;;;;;4.15;1.67;;;27.30;57.10;;;;;;5048713;28;20020;-84
2022/06/16 13:51:24;;;;;;;3.45;1.80;;;27.30;57.40;;;;;;5070096;28;20116;-84
2022/06/16 13:53:50;;;;;;;4.50;1.95;;;27.30;56.50;;;;;;5059318;28;20016;-84
2022/06/16 13:56:22;;;;;;;4.38;1.65;;;27.40;57.10;;;;;;5052131;28;20032;-84
2022/06/16 13:58:51;;;;;;;2.10;1.58;;;27.30;57.30;;;;;;5063022;28;20378;-84
2022/06/16 14:01:43;;;;;;;4.18;1.65;;;27.40;57.70;;;;;;5066688;28;20107;-84
2022/06/16 14:04:16;;;;;;;3.17;1.60;;;27.40;57.50;;;;;;5062804;28;20044;-85
2022/06/16 14:06:47;;;;;;;4.10;1.98;;;27.40;57.40;;;;;;5057981;28;20385;-84
2022/06/16 14:09:31;;;;;;;3.58;1.88;;;27.40;57.00;;;;;;5079352;28;20028;-84
2022/06/16 14:12:11;;;;;;;4.30;1.67;;;27.50;57.50;;;;;;5081009;28;20031;-85
2022/06/16 14:18:21;;;;;;;3.42;1.88;;;27.50;57.40;;;;;;5065982;28;20019;-84
2022/06/16 14:20:50;;;;;;;6.18;1.75;;;27.50;56.90;;;;;;5063525;28;20504;-84
2022/06/16 14:23:30;;;;;;;5.15;1.95;;;27.40;56.60;;;;;;5059477;28;20059;-85
2022/06/16 14:26:00;;;;;;;;;;;27.50;56.00;;;;;;5063409;28;20020;-84
2022/06/16 14:28:35;;;;;;;3.05;1.60;;;27.40;56.10;;;;;;5077101;28;19911;-85
2022/06/16 14:31:34;;;;;;;2.97;1.50;;;27.40;54.80;;;;;;5060916;28;20482;-85
2022/06/16 14:34:10;;;;;;;6.15;1.80;;;27.40;53.90;;;;;;5040038;28;20164;-85
2022/06/16 14:37:34;;;;;;;5.15;2.30;;;27.40;54.30;;;;;;5052530;28;20112;-85
2022/06/16 14:40:09;;;;;;;4.35;2.08;;;27.50;54.40;;;;;;4980205;28;20085;-84
2022/06/16 14:42:40;;;;;;;4.70;1.67;;;27.50;53.90;;;;;;4991827;28;20032;-84
2022/06/16 14:45:20;;;;;;;3.85;2.00;;;27.50;54.00;;;;;;5029492;28;20032;-85
2022/06/16 14:48:15;;;;;;;5.10;2.17;;;27.50;54.40;;;;;;5038076;28;20021;-85
2022/06/16 14:50:46;;;;;;;2.83;2.00;;;27.60;54.70;;;;;;5025434;28;20386;-85
2022/06/16 14:53:40;;;;;;;2.80;1.73;;;27.70;55.00;;;;;;5053497;28;20024;-86
2022/06/16 14:56:16;;;;;;;8.23;1.80;;;27.80;55.30;;;;;;5053777;28;20036;-83
2022/06/16 14:58:48;;;;;;;3.97;1.90;;;27.90;55.40;;;;;;5077456;28;20108;-84
2022/06/16 15:01:16;;;;;;;3.00;1.88;;;28.00;55.20;;;;;;5059099;28;20059;-83
2022/06/16 15:03:45;;;;;;;5.95;1.92;;;28.00;55.20;;;;;;5058390;28;20032;-82
2022/06/16 15:06:13;;;;;;;4.32;1.63;;;28.10;54.90;;;;;;5059641;28;20036;-84
2022/06/16 15:08:45;;;;;;;4.65;1.88;;;28.10;54.40;;;;;;5058251;28;20106;-83
2022/06/16 15:11:15;;;;;;;4.00;2.00;;;28.10;54.40;;;;;;5060042;28;20028;-84
2022/06/16 15:13:47;;;;;;;3.72;2.00;;;28.20;54.80;;;;;;5057542;28;20021;-84
2022/06/16 15:19:02;;;;;;;3.35;1.80;;;28.30;54.60;;;;;;5076184;28;20043;-84
2022/06/16 15:21:28;;;;;;;3.35;1.70;;;28.40;54.10;;;;;;5024707;28;20032;-86
2022/06/16 15:23:57;;;;;;;4.47;1.92;;;28.40;54.00;;;;;;5040210;28;20082;-85
2022/06/16 15:26:27;;;;;;;4.45;2.10;;;28.50;54.20;;;;;;5056510;28;20024;-86
2022/06/16 15:28:59;;;;;;;2.58;1.65;;;28.50;54.10;;;;;;5056330;28;20055;-86
2022/06/16 15:31:28;;;;;;;3.90;1.70;;;28.50;54.00;;;;;;5056363;28;20028;-83
2022/06/16 15:37:12;;;;;;;4.82;1.80;;;28.60;54.00;;;;;;4992832;28;20027;-83
2022/06/16 15:39:41;;;;;;;3.75;1.60;;;28.60;53.80;;;;;;4976465;28;20033;-83
2022/06/16 15:42:15;;;;;;;7.38;1.90;;;28.70;53.20;;;;;;5036159;28;20050;-83